Time;durP1;ratioP1;P1;durP2;ratioP2;P2;SDS_P1;SDS_P2;PMS_P1;PMS_P2;Temp;Humidity;BMP_temperature;BMP_pressure;BME280_temperature;BME280_humidity;BME280_pressure;Samples;Min_cycle;Max_cycle;Signal;HPM_P1;HPM_P2
2022/08/18 00:01:01;;;;;;;5.93;5.60;;;23.80;53.60;;;;;;20433;6874;279982;-85
2022/08/18 00:03:27;;;;;;;6.53;5.93;;;24.10;54.10;;;;;;20702;6859;117702;-85
2022/08/18 00:05:52;;;;;;;5.63;5.33;;;24.00;53.70;;;;;;20686;6859;117522;-86
2022/08/18 00:08:18;;;;;;;6.13;5.63;;;23.80;53.10;;;;;;20708;6859;117947;-85
2022/08/18 00:10:43;;;;;;;6.30;5.90;;;23.50;53.80;;;;;;20504;6859;279959;-85
2022/08/18 00:13:09;;;;;;;5.63;5.23;;;23.70;54.60;;;;;;20712;6859;117222;-85
2022/08/18 00:15:34;;;;;;;5.83;5.53;;;23.70;54.20;;;;;;20716;6859;117331;-85
2022/08/18 00:18:00;;;;;;;5.77;5.37;;;23.50;54.20;;;;;;20478;6859;309120;-90
2022/08/18 00:20:26;;;;;;;6.20;5.90;;;23.70;53.80;;;;;;20497;6859;310800;-87
2022/08/18 00:22:51;;;;;;;6.30;5.90;;;24.00;53.90;;;;;;20510;6859;286365;-86
2022/08/18 00:25:17;;;;;;;6.00;5.70;;;24.30;53.60;;;;;;20502;6859;281981;-86
2022/08/18 00:27:42;;;;;;;6.40;6.10;;;24.40;52.50;;;;;;20483;6859;279091;-85
2022/08/18 00:30:08;;;;;;;6.90;6.50;;;24.50;52.10;;;;;;20483;6859;296818;-85
2022/08/18 00:32:34;;;;;;;6.22;5.93;;;24.60;52.10;;;;;;20491;6859;307766;-85
2022/08/18 00:35:13;;;;;;;5.70;5.37;;;24.50;52.00;;;;;;20703;6859;117632;-85
2022/08/18 00:37:42;;;;;;;6.10;5.80;;;24.20;52.30;;;;;;20493;6859;308672;-85
2022/08/18 00:40:09;;;;;;;6.37;6.07;;;24.20;52.90;;;;;;20481;6857;311670;-85
2022/08/18 00:42:34;;;;;;;6.20;5.90;;;24.30;53.80;;;;;;20471;6857;327682;-85
2022/08/18 00:44:59;;;;;;;6.13;5.73;;;24.50;52.70;;;;;;20691;6857;117536;-85
2022/08/18 00:47:28;;;;;;;6.37;6.07;;;24.30;52.70;;;;;;20491;6859;309016;-85
2022/08/18 00:49:51;;;;;;;6.63;6.13;;;24.30;53.00;;;;;;20694;6856;120139;-86
2022/08/18 00:52:17;;;;;;;7.40;7.00;;;24.20;53.10;;;;;;20481;6854;308660;-85
2022/08/18 00:54:43;;;;;;;6.87;6.47;;;24.20;53.10;;;;;;20421;6884;309260;-85
2022/08/18 00:57:08;;;;;;;7.60;7.10;;;24.30;53.20;;;;;;20416;6885;321788;-85
2022/08/18 00:59:47;;;;;;;7.20;6.80;;;24.50;53.10;;;;;;20720;6854;117342;-85
2022/08/18 01:02:19;;;;;;;7.13;6.70;;;24.20;53.20;;;;;;20416;6885;309268;-86
2022/08/18 01:04:55;;;;;;;7.10;6.70;;;24.20;53.70;;;;;;20495;6854;308809;-85
2022/08/18 01:07:24;;;;;;;6.80;6.50;;;24.30;52.90;;;;;;20460;6868;315514;-85
2022/08/18 01:09:50;;;;;;;6.63;6.23;;;24.50;52.90;;;;;;20642;6868;118463;-85
2022/08/18 01:12:15;;;;;;;6.73;6.30;;;24.30;52.90;;;;;;20470;6868;312317;-87
2022/08/18 01:14:41;;;;;;;6.57;6.17;;;24.30;52.50;;;;;;20473;6868;279617;-85
2022/08/18 01:22:37;;;;;;;7.37;6.87;;;23.90;53.10;;;;;;20472;6869;280027;-86
2022/08/18 01:27:49;;;;;;;7.20;6.80;;;24.20;53.00;;;;;;20456;6869;296331;-87
2022/08/18 01:30:14;;;;;;;6.90;6.50;;;24.30;52.60;;;;;;20345;6869;337918;-85
2022/08/18 01:32:40;;;;;;;7.10;6.70;;;24.40;52.40;;;;;;20697;6869;118282;-85
2022/08/18 01:35:07;;;;;;;7.32;6.90;;;24.20;52.80;;;;;;20458;6869;310588;-85
2022/08/18 01:37:31;;;;;;;7.30;6.90;;;24.20;53.30;;;;;;20664;6869;117440;-86
2022/08/18 01:39:56;;;;;;;8.05;7.55;;;24.00;53.20;;;;;;20443;6869;309263;-85
2022/08/18 01:42:22;;;;;;;7.87;7.43;;;24.10;53.60;;;;;;20443;6869;341123;-85
2022/08/18 01:44:50;;;;;;;7.45;7.00;;;24.20;53.10;;;;;;20471;6869;309999;-86
2022/08/18 01:47:13;;;;;;;6.70;6.30;;;24.30;53.00;;;;;;20678;6869;117336;-86
2022/08/18 01:49:40;;;;;;;6.70;6.40;;;24.00;53.10;;;;;;20450;6869;309334;-86
2022/08/18 01:52:06;;;;;;;6.65;6.00;;;23.90;53.30;;;;;;20661;6869;118221;-86
2022/08/18 01:54:30;;;;;;;6.73;6.33;;;23.70;53.60;;;;;;20672;6869;117789;-86
2022/08/18 01:56:55;;;;;;;7.30;6.90;;;23.40;54.00;;;;;;20470;6869;279512;-85
2022/08/18 01:59:22;;;;;;;7.80;7.30;;;23.70;53.70;;;;;;20476;6869;309748;-85
2022/08/18 02:01:47;;;;;;;6.55;6.20;;;23.70;53.70;;;;;;20472;6869;309626;-86
2022/08/18 02:04:14;;;;;;;7.23;6.73;;;24.00;53.70;;;;;;20339;6867;281086;-85
2022/08/18 02:06:39;;;;;;;6.93;6.50;;;24.00;53.70;;;;;;20459;6868;309585;-85
2022/08/18 02:09:05;;;;;;;7.00;6.70;;;24.10;53.70;;;;;;20480;6868;309995;-86
2022/08/18 02:11:30;;;;;;;7.23;6.83;;;24.10;53.80;;;;;;20463;6868;310973;-86
2022/08/18 02:13:56;;;;;;;6.55;6.15;;;24.20;53.50;;;;;;20668;6868;118438;-86
2022/08/18 02:16:22;;;;;;;5.60;5.40;;;23.80;53.50;;;;;;20681;6868;117629;-85
2022/08/18 02:18:47;;;;;;;6.57;6.27;;;23.40;54.10;;;;;;20475;6868;281398;-85
2022/08/18 02:21:13;;;;;;;6.65;6.25;;;23.40;54.80;;;;;;20466;6868;338473;-85
2022/08/18 02:23:38;;;;;;;6.90;6.45;;;23.60;54.20;;;;;;20460;6868;334145;-86
2022/08/18 02:26:08;;;;;;;6.90;6.50;;;23.80;54.20;;;;;;20444;6869;310244;-86
2022/08/18 02:28:33;;;;;;;6.53;6.13;;;23.80;53.70;;;;;;20677;6869;118178;-86
2022/08/18 02:31:05;;;;;;;7.00;6.70;;;23.60;53.80;;;;;;20469;6869;317871;-86
2022/08/18 02:33:32;;;;;;;7.20;6.80;;;23.50;54.50;;;;;;20463;6869;284011;-85
2022/08/18 02:35:58;;;;;;;6.53;6.23;;;23.60;54.80;;;;;;20452;6869;280204;-85
2022/08/18 02:38:24;;;;;;;6.82;6.20;;;23.40;54.50;;;;;;20683;6869;117641;-85
2022/08/18 02:40:53;;;;;;;6.85;6.55;;;23.40;54.50;;;;;;20473;6869;311044;-85
2022/08/18 02:43:19;;;;;;;6.32;5.93;;;23.40;54.70;;;;;;20434;6869;319893;-85
2022/08/18 02:45:45;;;;;;;6.22;5.93;;;23.50;54.10;;;;;;20472;6869;281874;-85
2022/08/18 02:48:10;;;;;;;5.93;5.62;;;23.70;54.10;;;;;;20664;6869;117758;-85
2022/08/18 02:50:43;;;;;;;6.60;6.30;;;23.40;54.00;;;;;;20467;6869;310140;-85
2022/08/18 02:53:02;;;;;;;5.28;5.00;;;23.40;53.90;;;;;;20663;6869;117619;-85
2022/08/18 02:55:28;;;;;;;5.73;5.43;;;23.20;53.90;;;;;;20679;6869;123554;-85
2022/08/18 02:57:53;;;;;;;5.90;5.60;;;22.90;54.00;;;;;;20453;6869;339271;-85
2022/08/18 03:00:19;;;;;;;5.43;5.13;;;23.00;53.50;;;;;;20680;6869;122478;-86
2022/08/18 03:02:48;;;;;;;5.80;5.43;;;22.90;53.60;;;;;;20685;6869;119118;-89
2022/08/18 03:05:14;;;;;;;6.00;5.70;;;22.80;54.60;;;;;;20472;6869;313389;-85
2022/08/18 03:07:40;;;;;;;6.20;5.70;;;22.80;54.60;;;;;;20487;6869;280886;-85
2022/08/18 03:10:06;;;;;;;6.40;6.10;;;23.20;54.40;;;;;;20453;6869;281095;-85
2022/08/18 03:12:32;;;;;;;6.35;6.03;;;23.50;53.60;;;;;;20467;6869;338855;-85
2022/08/18 03:15:00;;;;;;;6.87;6.47;;;23.50;53.60;;;;;;20466;6869;308702;-85
2022/08/18 03:17:23;;;;;;;5.80;5.50;;;23.50;53.40;;;;;;20678;6867;117221;-86
2022/08/18 03:19:49;;;;;;;6.00;5.60;;;23.30;53.60;;;;;;20462;6868;279588;-85
2022/08/18 03:22:14;;;;;;;6.18;5.87;;;23.30;53.40;;;;;;20476;6868;309710;-86
2022/08/18 03:24:41;;;;;;;6.33;6.03;;;23.50;53.30;;;;;;20479;6868;311642;-86
2022/08/18 03:27:06;;;;;;;6.00;5.60;;;23.50;53.10;;;;;;20682;6868;117734;-86
2022/08/18 03:29:32;;;;;;;5.70;5.40;;;23.30;53.30;;;;;;20691;6868;117441;-86
2022/08/18 03:31:57;;;;;;;5.50;5.10;;;22.90;53.70;;;;;;20672;6868;117595;-85
2022/08/18 03:34:23;;;;;;;5.78;5.47;;;22.60;54.30;;;;;;20524;6868;280435;-85
2022/08/18 03:36:51;;;;;;;5.90;5.60;;;22.70;54.40;;;;;;20484;6869;309727;-85
2022/08/18 03:39:16;;;;;;;6.07;5.77;;;23.10;53.50;;;;;;20474;6869;311281;-85
2022/08/18 03:41:42;;;;;;;5.73;5.43;;;23.10;52.70;;;;;;20690;6869;121856;-85
2022/08/18 03:44:08;;;;;;;5.60;5.30;;;23.10;52.70;;;;;;20645;6869;121248;-85
2022/08/18 03:46:34;;;;;;;6.03;5.73;;;22.90;54.00;;;;;;20471;6869;291717;-85
2022/08/18 03:49:00;;;;;;;6.33;6.03;;;22.90;53.90;;;;;;20478;6869;280124;-85
2022/08/18 03:51:25;;;;;;;5.80;5.30;;;23.20;53.60;;;;;;20681;6869;117769;-85
2022/08/18 03:53:51;;;;;;;6.05;5.75;;;23.00;53.50;;;;;;20450;6869;312019;-85
2022/08/18 03:56:17;;;;;;;6.17;5.77;;;23.00;54.00;;;;;;20684;6869;117688;-85
2022/08/18 03:58:44;;;;;;;6.53;6.23;;;22.80;53.90;;;;;;20467;6869;309323;-85
2022/08/18 04:01:09;;;;;;;6.30;5.90;;;22.90;54.30;;;;;;20665;6869;118501;-85
2022/08/18 04:03:35;;;;;;;5.87;5.57;;;22.70;54.20;;;;;;20695;6869;118050;-85
2022/08/18 04:06:01;;;;;;;6.27;5.97;;;22.20;55.80;;;;;;20660;6869;118436;-85
2022/08/18 04:08:26;;;;;;;7.28;6.97;;;22.20;55.20;;;;;;20497;6869;292108;-85
2022/08/18 04:10:54;;;;;;;6.97;6.40;;;22.30;56.10;;;;;;20744;6869;116998;-85
2022/08/18 04:13:19;;;;;;;6.20;5.90;;;22.30;55.80;;;;;;20678;6869;117799;-85
2022/08/18 04:15:44;;;;;;;7.07;6.68;;;22.10;56.10;;;;;;20687;6869;117292;-85
2022/08/18 04:18:10;;;;;;;6.93;6.50;;;22.00;56.60;;;;;;20685;6869;118519;-85
2022/08/18 04:20:36;;;;;;;7.13;6.73;;;21.80;56.70;;;;;;20539;6869;308065;-85
2022/08/18 04:23:02;;;;;;;8.60;8.10;;;22.10;57.30;;;;;;20540;6869;325222;-85
2022/08/18 04:25:27;;;;;;;7.10;6.70;;;22.50;56.80;;;;;;20753;6869;116524;-85
2022/08/18 04:27:59;;;;;;;8.00;7.60;;;22.40;56.30;;;;;;20517;6867;307796;-85
2022/08/18 04:30:21;;;;;;;7.50;7.10;;;22.60;56.50;;;;;;20746;6868;116636;-85
2022/08/18 04:32:46;;;;;;;7.67;7.17;;;22.50;56.30;;;;;;20755;6868;116526;-85
2022/08/18 04:35:12;;;;;;;7.83;7.30;;;22.20;56.50;;;;;;20550;6868;278463;-85
2022/08/18 04:37:37;;;;;;;7.63;7.23;;;22.40;56.70;;;;;;20544;6868;308302;-85
2022/08/18 04:40:03;;;;;;;6.60;6.30;;;22.70;56.00;;;;;;20737;6868;116592;-85
2022/08/18 04:42:29;;;;;;;7.63;7.13;;;22.60;55.70;;;;;;20708;6868;117828;-85
2022/08/18 04:44:54;;;;;;;8.27;7.77;;;22.40;56.00;;;;;;20471;6868;279783;-85
2022/08/18 04:47:20;;;;;;;7.60;7.20;;;22.50;56.40;;;;;;20680;6868;118034;-85
2022/08/18 04:49:45;;;;;;;8.23;7.73;;;22.50;56.10;;;;;;20677;6869;117608;-85
2022/08/18 04:54:56;;;;;;;8.80;8.20;;;22.40;56.80;;;;;;20473;6869;285428;-85
2022/08/18 04:57:22;;;;;;;7.75;7.35;;;22.80;56.20;;;;;;20678;6869;117504;-85
2022/08/18 04:59:48;;;;;;;7.87;7.47;;;22.70;56.00;;;;;;20686;6869;117887;-85
2022/08/18 05:02:13;;;;;;;8.50;8.00;;;22.50;56.30;;;;;;20498;6869;117927;-85
2022/08/18 05:04:39;;;;;;;7.80;7.40;;;22.30;56.60;;;;;;20665;6869;118268;-85
2022/08/18 05:07:04;;;;;;;8.77;8.27;;;22.20;56.90;;;;;;20457;6869;284279;-85
2022/08/18 05:09:30;;;;;;;7.60;7.15;;;22.40;57.10;;;;;;20682;6869;118146;-85
2022/08/18 05:11:55;;;;;;;7.70;7.10;;;22.40;56.60;;;;;;20663;6869;117590;-85
2022/08/18 05:14:21;;;;;;;7.20;6.75;;;22.30;56.70;;;;;;20699;6869;68599;-85
2022/08/18 05:16:48;;;;;;;8.43;7.82;;;22.30;56.90;;;;;;20468;6869;279682;-85
2022/08/18 05:19:12;;;;;;;8.03;7.50;;;22.50;57.20;;;;;;20679;6869;117510;-85
2022/08/18 05:21:41;;;;;;;7.40;7.07;;;22.60;56.70;;;;;;20684;6869;117875;-85
2022/08/18 05:24:04;;;;;;;7.65;7.25;;;22.60;56.50;;;;;;20426;6869;309679;-85
2022/08/18 05:26:30;;;;;;;8.73;8.30;;;23.00;56.00;;;;;;20462;6869;312303;-85
2022/08/18 05:28:56;;;;;;;8.60;8.00;;;23.00;56.00;;;;;;20679;6869;117934;-85
2022/08/18 05:31:22;;;;;;;8.10;7.50;;;22.80;55.70;;;;;;20686;6869;117891;-85
2022/08/18 05:33:48;;;;;;;7.30;6.90;;;22.80;55.70;;;;;;20691;6869;117487;-85
2022/08/18 05:36:22;;;;;;;7.07;6.57;;;22.60;56.20;;;;;;20520;6869;118358;-85
2022/08/18 05:38:53;;;;;;;7.20;6.77;;;22.50;56.10;;;;;;20564;6867;117678;-85
2022/08/18 05:41:23;;;;;;;7.23;6.73;;;22.40;56.30;;;;;;20657;6868;117449;-86
2022/08/18 05:43:49;;;;;;;7.80;7.30;;;22.40;56.30;;;;;;20438;6868;304240;-86
2022/08/18 05:46:15;;;;;;;8.43;7.93;;;22.70;56.20;;;;;;20469;6868;281084;-86
2022/08/18 05:48:43;;;;;;;7.97;7.47;;;23.00;55.20;;;;;;20476;6868;293684;-86
2022/08/18 05:51:08;;;;;;;7.50;7.10;;;23.40;54.90;;;;;;20471;6868;341217;-86
2022/08/18 05:59:05;;;;;;;7.60;7.03;;;23.10;54.70;;;;;;20691;6869;117424;-86
2022/08/18 06:01:33;;;;;;;8.20;7.70;;;22.90;55.20;;;;;;20473;6869;309218;-85
2022/08/18 06:04:03;;;;;;;7.87;7.47;;;23.40;55.20;;;;;;20438;6869;279889;-86
2022/08/18 06:06:29;;;;;;;7.60;7.20;;;23.30;55.10;;;;;;20465;6869;308814;-86
2022/08/18 06:09:14;;;;;;;6.80;6.50;;;23.60;54.40;;;;;;20683;6869;123941;-86
2022/08/18 06:11:40;;;;;;;7.10;6.70;;;23.50;54.50;;;;;;20473;6869;338812;-86
2022/08/18 06:14:05;;;;;;;7.40;6.80;;;23.70;54.40;;;;;;20664;6869;117527;-86
2022/08/18 06:16:48;;;;;;;7.60;7.00;;;23.60;54.30;;;;;;20478;6869;305764;-86
2022/08/18 06:19:33;;;;;;;6.60;6.20;;;23.80;54.20;;;;;;20678;6869;117822;-85
2022/08/18 06:22:02;;;;;;;6.80;6.40;;;23.70;54.10;;;;;;20631;6869;118305;-86
2022/08/18 06:24:34;;;;;;;7.40;7.00;;;23.50;54.20;;;;;;20453;6869;335963;-85
2022/08/18 06:27:21;;;;;;;7.07;6.60;;;23.80;53.70;;;;;;20682;6869;117431;-85
2022/08/18 06:30:06;;;;;;;6.50;6.10;;;23.80;53.70;;;;;;20762;6869;117002;-86
2022/08/18 06:32:45;;;;;;;7.13;6.77;;;23.60;53.90;;;;;;20531;6869;308094;-85
2022/08/18 06:35:30;;;;;;;7.00;6.60;;;23.90;53.40;;;;;;20751;6869;67660;-85
2022/08/18 06:38:38;;;;;;;7.23;6.83;;;23.90;53.20;;;;;;20468;6869;281764;-85
2022/08/18 06:41:18;;;;;;;6.87;6.47;;;24.20;52.30;;;;;;20696;6869;118087;-86
2022/08/18 06:43:56;;;;;;;6.20;5.90;;;24.00;52.20;;;;;;20672;6869;117892;-85
2022/08/18 06:46:20;;;;;;;7.20;6.80;;;23.80;52.50;;;;;;20662;6869;116550;-85
2022/08/18 06:48:52;;;;;;;6.70;6.30;;;23.70;52.80;;;;;;20675;6869;120669;-85
2022/08/18 06:51:18;;;;;;;6.23;5.83;;;23.70;53.10;;;;;;20684;6867;118053;-85
2022/08/18 06:53:59;;;;;;;6.18;5.87;;;23.70;53.20;;;;;;20470;6868;339359;-86
2022/08/18 06:56:38;;;;;;;6.67;6.37;;;23.90;52.90;;;;;;20475;6868;280426;-85
2022/08/18 06:59:21;;;;;;;6.90;6.60;;;24.40;53.30;;;;;;20477;6868;291451;-86
2022/08/18 07:01:46;;;;;;;7.60;7.12;;;24.80;52.70;;;;;;20473;6868;339632;-86
2022/08/18 07:04:36;;;;;;;7.60;7.10;;;25.20;52.50;;;;;;20451;6868;309754;-86
2022/08/18 07:07:13;;;;;;;7.13;6.70;;;25.20;52.50;;;;;;20688;6868;117986;-86
2022/08/18 07:09:39;;;;;;;7.00;6.60;;;24.50;52.80;;;;;;20607;6868;117882;-86
2022/08/18 07:12:04;;;;;;;7.00;6.60;;;24.50;52.80;;;;;;20682;6869;118200;-86
2022/08/18 07:14:31;;;;;;;7.27;6.87;;;24.10;53.50;;;;;;20683;6869;117024;-86
2022/08/18 07:17:10;;;;;;;7.82;7.32;;;24.00;53.40;;;;;;20462;6869;338364;-86
2022/08/18 07:19:35;;;;;;;8.00;7.50;;;24.20;53.80;;;;;;20478;6869;312038;-86
2022/08/18 07:22:01;;;;;;;7.82;7.43;;;24.50;53.50;;;;;;20469;6869;294464;-86
2022/08/18 07:24:32;;;;;;;8.10;7.50;;;24.70;53.30;;;;;;20676;6869;118560;-86
2022/08/18 07:27:16;;;;;;;8.37;7.97;;;24.50;53.10;;;;;;20467;6869;309701;-87
2022/08/18 07:29:40;;;;;;;8.70;8.20;;;24.50;53.70;;;;;;20474;6869;280868;-85
2022/08/18 07:32:09;;;;;;;8.00;7.40;;;24.60;53.30;;;;;;20593;6876;118644;-86
2022/08/18 07:34:39;;;;;;;8.00;7.60;;;24.40;53.50;;;;;;20454;6876;281068;-85
2022/08/18 07:37:03;;;;;;;7.80;7.40;;;24.40;53.90;;;;;;20691;6876;117103;-86
2022/08/18 07:39:29;;;;;;;7.47;6.87;;;24.20;54.00;;;;;;20644;6876;118305;-86
2022/08/18 07:41:56;;;;;;;7.60;7.10;;;23.80;54.90;;;;;;20649;6870;118020;-85
2022/08/18 07:44:24;;;;;;;8.40;8.00;;;23.80;54.90;;;;;;20454;6870;309284;-85
2022/08/18 07:47:02;;;;;;;8.70;8.20;;;24.00;55.80;;;;;;20442;6870;320250;-86
2022/08/18 07:49:29;;;;;;;8.23;7.73;;;24.30;55.20;;;;;;20676;6870;117551;-85
2022/08/18 07:51:56;;;;;;;8.30;7.80;;;24.20;54.80;;;;;;20652;6870;118037;-85
2022/08/18 07:54:45;;;;;;;9.03;8.43;;;24.00;54.80;;;;;;20450;6870;290331;-85
2022/08/18 07:57:14;;;;;;;8.52;8.05;;;23.90;54.70;;;;;;20467;6870;280544;-85
2022/08/18 07:59:47;;;;;;;8.70;8.30;;;24.20;53.50;;;;;;20451;6870;309830;-85
2022/08/18 08:02:36;;;;;;;9.30;8.60;;;24.30;53.10;;;;;;20684;6859;118956;-85
2022/08/18 08:05:01;;;;;;;8.30;7.90;;;24.30;53.10;;;;;;20713;6861;117772;-85
2022/08/18 08:07:30;;;;;;;9.33;8.73;;;24.00;53.40;;;;;;20499;6861;314420;-84
2022/08/18 08:10:12;;;;;;;8.85;8.25;;;24.00;53.30;;;;;;20468;6861;282706;-84
2022/08/18 08:12:44;;;;;;;8.57;8.17;;;24.30;53.80;;;;;;20710;6861;120834;-84
2022/08/18 08:15:32;;;;;;;8.00;7.60;;;24.20;53.80;;;;;;20693;6861;117399;-85
2022/08/18 08:18:11;;;;;;;8.17;7.67;;;23.90;53.40;;;;;;20466;6861;281996;-85
2022/08/18 08:20:36;;;;;;;8.90;8.40;;;24.20;53.70;;;;;;20483;6861;310911;-85
2022/08/18 08:23:26;;;;;;;8.40;8.00;;;24.50;53.60;;;;;;20426;6861;281035;-85
2022/08/18 08:26:17;;;;;;;7.33;6.90;;;24.70;53.10;;;;;;20588;6861;118120;-85
2022/08/18 08:29:02;;;;;;;7.97;7.57;;;24.60;53.40;;;;;;20485;6861;342081;-85
2022/08/18 08:31:47;;;;;;;7.57;7.13;;;24.80;55.90;;;;;;20683;6861;117892;-85
2022/08/18 08:34:43;;;;;;;8.60;8.10;;;24.80;55.10;;;;;;20468;6861;312149;-85
2022/08/18 08:37:11;;;;;;;7.77;7.37;;;25.10;52.80;;;;;;20006;6861;119979;-85
2022/08/18 08:39:43;;;;;;;8.17;7.77;;;25.10;53.00;;;;;;20474;6861;301496;-85
2022/08/18 08:42:18;;;;;;;7.53;7.13;;;25.30;53.70;;;;;;20600;6861;120701;-85
2022/08/18 08:44:45;;;;;;;8.17;7.57;;;25.30;52.90;;;;;;20690;6861;117451;-85
2022/08/18 08:47:10;;;;;;;8.40;7.87;;;25.10;52.80;;;;;;20678;6861;117425;-85
2022/08/18 08:49:41;;;;;;;8.50;8.00;;;24.90;53.00;;;;;;20684;6861;117447;-85
2022/08/18 08:52:16;;;;;;;8.95;8.35;;;24.80;53.10;;;;;;20462;6861;343665;-85
2022/08/18 08:54:55;;;;;;;8.70;8.10;;;25.10;52.70;;;;;;20691;6861;117567;-85
2022/08/18 08:57:26;;;;;;;9.37;8.87;;;25.10;52.40;;;;;;20483;6861;309753;-86
2022/08/18 08:59:52;;;;;;;8.70;8.20;;;25.40;53.90;;;;;;20468;6861;280219;-87
2022/08/18 09:02:44;;;;;;;8.97;8.47;;;25.90;52.00;;;;;;20704;6861;120723;-86
2022/08/18 09:05:10;;;;;;;8.90;8.33;;;26.10;51.70;;;;;;19695;7195;123193;-86
2022/08/18 09:08:12;;;;;;;7.87;7.37;;;26.00;51.40;;;;;;19597;7225;122254;-86
2022/08/18 09:10:56;;;;;;;8.73;8.30;;;26.00;51.40;;;;;;18876;7240;294453;-86
2022/08/18 09:13:27;;;;;;;9.10;8.60;;;26.30;51.30;;;;;;20033;6873;312564;-86
2022/08/18 09:16:20;;;;;;;9.30;8.70;;;26.80;50.40;;;;;;20719;6850;117507;-86
2022/08/18 09:19:15;;;;;;;9.38;8.77;;;26.80;49.70;;;;;;20529;6851;328525;-86
2022/08/18 09:21:57;;;;;;;8.65;8.15;;;27.10;49.20;;;;;;20494;6851;307726;-86
2022/08/18 09:24:29;;;;;;;8.13;7.63;;;27.50;48.60;;;;;;20728;6851;118092;-86
2022/08/18 09:27:01;;;;;;;8.80;8.10;;;27.50;48.30;;;;;;20210;6881;311563;-86
2022/08/18 09:29:36;;;;;;;7.30;6.90;;;27.70;46.40;;;;;;20730;6851;117863;-86
2022/08/18 09:32:22;;;;;;;7.35;6.85;;;27.60;47.00;;;;;;20505;6851;279596;-86
2022/08/18 09:35:04;;;;;;;8.33;7.93;;;27.90;47.80;;;;;;20453;6881;279831;-86
2022/08/18 09:43:10;;;;;;;9.18;8.68;;;29.00;44.40;;;;;;20133;6881;308852;-86
2022/08/18 09:45:36;;;;;;;8.67;8.07;;;29.30;43.80;;;;;;20734;6851;117862;-86
2022/08/18 09:48:04;;;;;;;7.23;6.83;;;29.20;43.90;;;;;;20611;6881;117688;-86
2022/08/18 09:50:30;;;;;;;6.90;6.50;;;29.00;43.90;;;;;;20479;6851;308392;-85
2022/08/18 09:52:58;;;;;;;7.10;6.73;;;29.10;43.40;;;;;;20650;6881;117639;-86
2022/08/18 09:55:22;;;;;;;7.30;6.77;;;29.10;43.40;;;;;;20699;6851;121842;-86
2022/08/18 09:57:48;;;;;;;6.10;5.80;;;29.10;44.90;;;;;;20740;6851;117541;-87
2022/08/18 10:00:18;;;;;;;7.80;7.30;;;29.00;44.20;;;;;;20286;6851;309253;-89
2022/08/18 10:02:47;;;;;;;8.27;7.87;;;29.70;41.50;;;;;;20384;6881;280060;-89
2022/08/18 10:08:06;;;;;;;7.03;6.63;;;30.10;41.10;;;;;;20529;6851;308588;-86
2022/08/18 10:10:51;;;;;;;7.10;6.80;;;30.10;41.10;;;;;;20491;6866;279997;-85
2022/08/18 10:13:28;;;;;;;8.43;7.93;;;30.60;40.90;;;;;;20532;6851;279082;-86
2022/08/18 10:16:09;;;;;;;8.63;8.00;;;30.60;40.90;;;;;;20612;6881;118034;-86
2022/08/18 10:19:15;;;;;;;8.33;7.83;;;30.60;41.20;;;;;;20737;6851;120479;-86
2022/08/18 10:21:54;;;;;;;9.88;9.18;;;30.30;42.00;;;;;;20487;6866;308904;-86
2022/08/18 10:24:20;;;;;;;9.67;9.10;;;30.50;41.20;;;;;;20735;6851;117614;-86
2022/08/18 10:26:46;;;;;;;9.50;8.90;;;30.50;41.60;;;;;;20642;6879;114811;-86
2022/08/18 10:29:28;;;;;;;8.10;7.60;;;30.40;41.80;;;;;;20704;6851;117654;-86
2022/08/18 10:32:00;;;;;;;9.10;8.60;;;30.20;42.00;;;;;;20423;6881;312354;-87
2022/08/18 10:34:35;;;;;;;9.20;8.70;;;30.30;40.50;;;;;;20711;6851;118285;-86
2022/08/18 10:37:01;;;;;;;9.13;8.60;;;30.20;40.80;;;;;;20468;6851;117506;-86
2022/08/18 10:39:26;;;;;;;10.48;9.88;;;29.90;41.20;;;;;;20513;6851;309070;-86
2022/08/18 10:41:56;;;;;;;9.37;8.83;;;30.00;41.60;;;;;;20441;6851;307053;-86
2022/08/18 10:44:21;;;;;;;8.20;7.80;;;30.10;41.30;;;;;;20722;6851;118537;-86
2022/08/18 10:46:48;;;;;;;9.13;8.63;;;30.10;41.60;;;;;;20640;6881;119963;-87
2022/08/18 10:49:13;;;;;;;9.57;8.77;;;29.80;41.90;;;;;;20725;6851;116404;-86
2022/08/18 10:51:56;;;;;;;8.60;8.10;;;29.60;42.10;;;;;;20735;6851;117848;-87
2022/08/18 10:54:47;;;;;;;8.17;7.70;;;29.40;43.10;;;;;;20650;6881;117692;-87
2022/08/18 10:57:32;;;;;;;10.03;9.30;;;29.30;42.60;;;;;;20507;6851;308263;-87
2022/08/18 10:59:58;;;;;;;9.80;9.20;;;29.50;42.10;;;;;;20104;6851;119294;-87
2022/08/18 11:02:27;;;;;;;10.20;9.20;;;29.40;42.30;;;;;;20715;6851;118277;-86
2022/08/18 11:04:53;;;;;;;10.50;9.90;;;29.20;42.70;;;;;;20497;6851;310149;-87
2022/08/18 11:07:18;;;;;;;9.53;8.93;;;29.30;42.40;;;;;;20724;6851;117643;-86
2022/08/18 11:09:44;;;;;;;10.95;10.15;;;29.40;43.30;;;;;;20496;6851;309043;-87
2022/08/18 11:12:10;;;;;;;11.10;10.30;;;29.30;43.20;;;;;;20704;6851;118099;-87
2022/08/18 11:15:06;;;;;;;11.33;10.67;;;29.30;43.10;;;;;;20730;6851;117781;-87
2022/08/18 11:17:38;;;;;;;13.33;12.53;;;29.20;43.30;;;;;;20524;6851;308330;-87
2022/08/18 11:20:04;;;;;;;11.70;11.00;;;29.60;44.10;;;;;;20387;6881;309290;-85
2022/08/18 11:22:30;;;;;;;14.07;13.17;;;29.60;44.10;;;;;;20517;6851;311024;-85
2022/08/18 11:24:55;;;;;;;12.67;11.67;;;29.80;42.80;;;;;;20730;6851;117995;-85
2022/08/18 11:27:24;;;;;;;13.30;12.45;;;29.60;43.20;;;;;;20529;6851;278301;-85
2022/08/18 11:29:50;;;;;;;13.17;12.23;;;29.60;43.40;;;;;;20489;6851;283838;-85
2022/08/18 11:32:28;;;;;;;12.57;11.67;;;29.70;43.40;;;;;;20545;6859;118983;-86
2022/08/18 11:34:58;;;;;;;13.70;12.60;;;29.70;43.30;;;;;;20707;6850;117708;-86
2022/08/18 11:37:25;;;;;;;12.17;11.47;;;29.40;43.40;;;;;;20555;6849;296570;-85
2022/08/18 11:39:50;;;;;;;13.70;12.63;;;29.50;44.30;;;;;;20710;6848;117714;-86
2022/08/18 11:42:16;;;;;;;11.27;10.45;;;29.60;43.70;;;;;;20745;6848;118058;-86
2022/08/18 11:44:41;;;;;;;11.18;10.35;;;29.50;43.90;;;;;;20752;6848;117079;-85
2022/08/18 11:47:13;;;;;;;13.03;11.93;;;29.40;43.40;;;;;;20743;6848;120109;-85
2022/08/18 11:49:39;;;;;;;12.50;11.50;;;29.40;43.60;;;;;;20713;6848;117763;-85
2022/08/18 11:52:14;;;;;;;12.32;11.57;;;29.30;43.50;;;;;;20703;6848;118496;-86
2022/08/18 11:54:40;;;;;;;13.27;12.27;;;29.40;43.60;;;;;;20516;6848;307798;-85
2022/08/18 11:57:39;;;;;;;12.20;11.30;;;29.70;43.10;;;;;;20525;6848;329778;-85
2022/08/18 12:00:41;;;;;;;12.50;11.60;;;30.10;42.20;;;;;;20511;6848;295074;-85
2022/08/18 12:03:07;;;;;;;9.47;8.67;;;30.30;40.80;;;;;;20540;6848;280574;-86
2022/08/18 12:05:49;;;;;;;8.37;7.87;;;30.50;40.30;;;;;;20735;6848;117534;-86
2022/08/18 12:08:15;;;;;;;7.43;6.90;;;30.30;40.20;;;;;;20587;6848;118478;-86
2022/08/18 12:10:41;;;;;;;7.93;7.43;;;29.70;41.60;;;;;;20740;6848;117581;-86
2022/08/18 12:13:06;;;;;;;7.73;7.23;;;29.70;40.90;;;;;;20749;6848;119979;-86
2022/08/18 12:15:32;;;;;;;7.47;6.97;;;29.50;41.00;;;;;;20741;6848;120285;-86
2022/08/18 12:17:57;;;;;;;7.68;7.28;;;29.40;41.20;;;;;;20401;6871;309701;-86
2022/08/18 12:20:23;;;;;;;7.27;6.87;;;29.50;40.20;;;;;;20671;6874;117442;-86
2022/08/18 12:22:49;;;;;;;7.77;7.17;;;29.40;40.40;;;;;;20762;6842;117193;-86
2022/08/18 12:25:16;;;;;;;9.03;8.43;;;29.40;40.40;;;;;;20554;6842;278547;-86
2022/08/18 12:27:41;;;;;;;8.95;8.30;;;29.60;39.90;;;;;;20467;6871;338150;-86
2022/08/18 12:30:08;;;;;;;8.20;7.50;;;29.80;40.10;;;;;;20645;6874;117822;-85
2022/08/18 12:32:34;;;;;;;7.33;6.93;;;29.70;40.00;;;;;;20755;6842;117323;-86
2022/08/18 12:35:00;;;;;;;7.90;7.40;;;29.50;40.20;;;;;;20454;6871;338597;-86
2022/08/18 12:37:25;;;;;;;7.90;7.30;;;29.50;39.90;;;;;;20660;6874;118048;-86
2022/08/18 12:39:51;;;;;;;8.47;7.97;;;29.50;39.90;;;;;;20733;6842;117884;-86
2022/08/18 12:42:18;;;;;;;8.65;8.07;;;29.40;40.10;;;;;;20459;6871;309886;-86
2022/08/18 12:44:43;;;;;;;9.33;8.73;;;29.50;40.00;;;;;;20671;6874;117880;-85
2022/08/18 12:47:09;;;;;;;8.63;8.03;;;29.30;40.70;;;;;;20765;6842;117824;-85
2022/08/18 12:49:35;;;;;;;8.33;7.83;;;29.20;40.70;;;;;;20743;6840;117817;-85
2022/08/18 12:52:00;;;;;;;9.73;9.07;;;29.10;41.30;;;;;;20748;6842;145270;-85
2022/08/18 12:54:27;;;;;;;9.85;9.15;;;29.10;41.20;;;;;;20529;6842;310953;-85
2022/08/18 12:56:53;;;;;;;8.87;8.33;;;29.20;40.50;;;;;;20767;6842;117564;-85
2022/08/18 12:59:19;;;;;;;9.40;8.67;;;29.20;40.80;;;;;;20766;6842;118384;-86
2022/08/18 13:01:45;;;;;;;9.23;8.63;;;29.30;40.80;;;;;;20556;6842;279592;-86
2022/08/18 13:04:10;;;;;;;9.25;8.65;;;29.50;40.50;;;;;;20531;6842;310361;-85
2022/08/18 13:06:36;;;;;;;8.43;7.63;;;30.00;39.60;;;;;;20763;6842;117795;-86
2022/08/18 13:09:04;;;;;;;8.83;8.23;;;30.00;39.20;;;;;;20670;6871;117394;-86
2022/08/18 13:11:29;;;;;;;8.57;8.03;;;29.90;39.20;;;;;;20677;6871;119722;-86
2022/08/18 13:13:55;;;;;;;9.37;8.77;;;29.80;39.50;;;;;;20664;6871;118421;-86